Ludlow, Illinois
Current Conditions -  °F | °C
As of 10:10 PM on Wednesday 22 Oct 2014 (Local Time) from KTIP Reporting Station
Haze Haze  
Wind Chill: 45°   Ceiling: Unl
Heat Index: 45°   Visibility: 2mi
Dew Point: 36°   Wind: 0mph
Humidity: 70%   Direction: NA
Pressure: 30.26"   Gusts: NA
Location:  40.39°N, 88.13°W
Report Text: KTIP 230310Z AUTO 00000KT 2SM HZ CLR 07/02 A3026 RMK AO2 T00720021
Loading
Personal Weather Stations






























Interactive Weather Map
Tropical Storm Tracking
New forecast layout! Learn more

10-Day Weather Forecast

Advertisements
Track Severe Weather on mobile